createdAt,value
2018-03-07T00:00:32.033Z,98950.34
2018-03-07T00:02:58.189Z,98950.77
2018-03-07T00:05:24.344Z,98947.28
2018-03-07T00:07:50.544Z,98951.61
2018-03-07T00:10:16.766Z,98955.97
2018-03-07T00:12:42.982Z,98949.52
2018-03-07T00:15:09.204Z,98949.95
2018-03-07T00:17:35.464Z,98946.07
2018-03-07T00:20:01.638Z,98949.96
2018-03-07T00:22:27.901Z,98947.36
2018-03-07T00:24:54.076Z,98946.02
2018-03-07T00:27:20.241Z,98951.19
2018-03-07T00:29:46.422Z,98949.37
2018-03-07T00:32:12.686Z,98952.38
2018-03-07T00:34:38.832Z,98944.53
2018-03-07T00:37:05.017Z,98950.16
2018-03-07T00:39:31.193Z,98953.16
2018-03-07T00:41:57.398Z,98950.16
2018-03-07T00:44:23.542Z,98950.56
2018-03-07T00:46:49.768Z,98947.95
2018-03-07T00:49:15.912Z,98947.08
2018-03-07T00:51:42.092Z,98946.22
2018-03-07T00:54:08.346Z,98945.76
2018-03-07T00:56:34.520Z,98944.91
2018-03-07T00:59:00.692Z,98942.75
2018-03-07T01:01:26.933Z,98948.80
2018-03-07T01:03:53.112Z,98949.24
2018-03-07T01:06:20.009Z,98944.89
2018-03-07T01:08:46.187Z,98937.83
2018-03-07T01:11:12.374Z,98940.38
2018-03-07T01:13:38.584Z,98942.53
2018-03-07T01:16:04.776Z,98943.41
2018-03-07T01:18:30.990Z,98945.19
2018-03-07T01:20:57.205Z,98950.83
2018-03-07T01:23:23.400Z,98947.83
2018-03-07T01:25:49.611Z,98943.08
2018-03-07T01:28:15.806Z,98945.24
2018-03-07T01:30:42.066Z,98939.60
2018-03-07T01:33:08.250Z,98937.81
2018-03-07T01:35:34.408Z,98945.16
2018-03-07T01:38:00.637Z,98947.31
2018-03-07T01:40:26.826Z,98943.42
2018-03-07T01:42:52.981Z,98938.20
2018-03-07T01:45:19.226Z,98936.50
2018-03-07T01:47:45.401Z,98934.74
2018-03-07T01:50:12.558Z,98927.78
2018-03-07T01:52:38.822Z,98922.97
2018-03-07T01:55:05.043Z,98921.22
2018-03-07T01:57:31.247Z,98915.53
2018-03-07T01:59:57.429Z,98910.23
2018-03-07T02:02:23.679Z,98911.48
2018-03-07T02:04:49.891Z,98912.83
2018-03-07T02:07:16.036Z,98910.30
2018-03-07T02:09:42.217Z,98904.31
2018-03-07T02:12:08.407Z,98903.55
2018-03-07T02:14:34.601Z,98902.77
2018-03-07T02:17:01.394Z,98895.47
2018-03-07T02:19:27.571Z,98893.75
2018-03-07T02:21:53.826Z,98898.13
2018-03-07T02:24:19.998Z,98897.75
2018-03-07T02:26:46.142Z,98893.02
2018-03-07T02:29:12.321Z,98895.22
2018-03-07T02:31:38.502Z,98895.67
2018-03-07T02:34:04.711Z,98898.72
2018-03-07T02:36:31.764Z,98890.96
2018-03-07T02:38:57.943Z,98894.88
2018-03-07T02:41:24.161Z,98894.91
2018-03-07T02:43:50.386Z,98891.05
2018-03-07T02:46:16.556Z,98891.03
2018-03-07T02:48:42.725Z,98892.72
2018-03-07T02:51:08.989Z,98895.73
2018-03-07T02:53:35.182Z,98893.57
2018-03-07T02:56:01.357Z,98897.03
2018-03-07T02:58:27.603Z,98895.66
2018-03-07T03:00:53.821Z,98888.66
2018-03-07T03:03:19.957Z,98896.39
2018-03-07T03:05:46.157Z,98886.85
2018-03-07T03:08:12.324Z,98884.65
2018-03-07T03:10:39.273Z,98887.24
2018-03-07T03:13:05.464Z,98888.55
2018-03-07T03:15:31.637Z,98892.87
2018-03-07T03:17:57.826Z,98890.68
2018-03-07T03:20:24.044Z,98890.64
2018-03-07T03:22:50.257Z,98894.08
2018-03-07T03:25:16.440Z,98891.01
2018-03-07T03:27:42.682Z,98891.88
2018-03-07T03:30:08.935Z,98891.84
2018-03-07T03:32:35.114Z,98894.88
2018-03-07T03:35:01.329Z,98888.75
2018-03-07T03:37:27.543Z,98892.55
2018-03-07T03:39:53.735Z,98896.41
2018-03-07T03:42:20.295Z,98897.69
2018-03-07T03:44:46.450Z,98895.92
2018-03-07T03:47:12.618Z,98899.80
2018-03-07T03:49:38.811Z,98899.77
2018-03-07T03:52:05.014Z,98897.49
2018-03-07T03:54:32.122Z,98898.29
2018-03-07T03:56:58.902Z,98897.33
2018-03-07T03:59:25.054Z,98896.84
2018-03-07T04:01:51.314Z,98889.89
2018-03-07T04:04:17.524Z,98888.55
2018-03-07T04:06:43.663Z,98890.28
2018-03-07T04:09:09.862Z,98886.78
2018-03-07T04:11:36.075Z,98897.63
2018-03-07T04:14:02.260Z,98896.33
2018-03-07T04:16:29.249Z,98895.84
2018-03-07T04:18:55.467Z,98892.80
2018-03-07T04:21:21.711Z,98895.38
2018-03-07T04:23:47.894Z,98900.59
2018-03-07T04:26:14.040Z,98901.91
2018-03-07T04:28:40.221Z,98906.27
2018-03-07T04:31:06.456Z,98906.70
2018-03-07T04:33:32.624Z,98914.08
2018-03-07T04:35:58.785Z,98904.05
2018-03-07T04:38:26.174Z,98909.23
2018-03-07T04:40:52.375Z,98905.36
2018-03-07T04:43:18.563Z,98910.91
2018-03-07T04:45:44.730Z,98913.51
2018-03-07T04:48:10.901Z,98911.78
2018-03-07T04:50:37.043Z,98916.97
2018-03-07T04:53:03.281Z,98916.95
2018-03-07T04:55:29.434Z,98914.80
2018-03-07T04:57:55.597Z,98920.38
2018-03-07T05:00:21.825Z,98916.48
2018-03-07T05:02:48.084Z,98916.06
2018-03-07T05:05:14.236Z,98918.64
2018-03-07T05:07:40.404Z,98914.26
2018-03-07T05:10:06.565Z,98909.89
2018-03-07T05:12:32.856Z,98913.38
2018-03-07T05:14:59.032Z,98907.72
2018-03-07T05:17:25.213Z,98906.84
2018-03-07T05:19:51.410Z,98906.02
2018-03-07T05:22:17.946Z,98901.23
2018-03-07T05:24:44.115Z,98901.25
2018-03-07T05:27:10.260Z,98903.03
2018-03-07T05:29:36.496Z,98915.19
2018-03-07T05:32:02.965Z,98905.64
2018-03-07T05:34:29.088Z,98905.64
2018-03-07T05:36:55.271Z,98904.34
2018-03-07T05:39:21.447Z,98904.31
2018-03-07T05:41:47.660Z,98904.78
2018-03-07T05:44:13.782Z,98915.62
2018-03-07T05:46:40.135Z,98909.55
2018-03-07T05:49:06.293Z,98911.74
2018-03-07T05:51:32.488Z,98913.50
2018-03-07T05:53:59.517Z,98917.82
2018-03-07T05:56:25.722Z,98924.79
2018-03-07T05:58:51.913Z,98916.52
2018-03-07T06:01:18.132Z,98919.56
2018-03-07T06:03:44.293Z,98922.61
2018-03-07T06:06:10.506Z,98920.39
2018-03-07T06:08:36.660Z,98924.31
2018-03-07T06:11:02.841Z,98924.29
2018-03-07T06:13:29.080Z,98926.84
2018-03-07T06:15:55.277Z,98925.52
2018-03-07T06:18:21.520Z,98927.23
2018-03-07T06:20:47.712Z,98929.36
2018-03-07T06:23:13.962Z,98924.53
2018-03-07T06:25:40.205Z,98928.88
2018-03-07T06:28:06.341Z,98932.72
2018-03-07T06:30:32.600Z,98934.86
2018-03-07T06:32:58.856Z,98933.55
2018-03-07T06:35:25.079Z,98931.77
2018-03-07T06:37:51.195Z,98941.73
2018-03-07T06:40:17.376Z,98945.16
2018-03-07T06:42:43.614Z,98947.72
2018-03-07T06:45:09.805Z,98952.92
2018-03-07T06:47:36.002Z,98950.70
2018-03-07T06:50:02.247Z,98953.30
2018-03-07T06:52:28.428Z,98959.38
2018-03-07T06:54:54.569Z,98960.66
2018-03-07T06:57:20.757Z,98964.94
2018-03-07T06:59:46.961Z,98966.66
2018-03-07T07:02:13.233Z,98971.34
2018-03-07T07:04:39.432Z,98970.40
2018-03-07T07:07:05.629Z,98978.17
2018-03-07T07:09:31.783Z,98977.23
2018-03-07T07:11:58.017Z,98978.45
2018-03-07T07:14:24.171Z,98981.87
2018-03-07T07:16:50.439Z,98990.95
2018-03-07T07:19:16.656Z,98990.44
2018-03-07T07:21:42.925Z,98993.00
2018-03-07T07:24:09.074Z,98995.61
2018-03-07T07:26:35.281Z,98996.48
2018-03-07T07:29:01.523Z,99007.34
2018-03-07T07:31:27.698Z,99012.55
2018-03-07T07:33:53.898Z,99024.73
2018-03-07T07:36:20.023Z,99026.89
2018-03-07T07:38:46.197Z,99030.37
2018-03-07T07:41:12.364Z,99035.12
2018-03-07T07:43:38.600Z,99035.09
2018-03-07T07:46:04.752Z,99040.28
2018-03-07T07:48:31.004Z,99045.47
2018-03-07T07:50:57.208Z,99050.61
2018-03-07T07:53:23.420Z,99058.88
2018-03-07T07:55:49.581Z,99058.42
2018-03-07T07:58:15.740Z,99060.58
2018-03-07T08:00:42.007Z,99057.13
2018-03-07T08:03:08.255Z,99068.84
2018-03-07T08:05:34.421Z,99066.22
2018-03-07T08:08:00.580Z,99072.75
2018-03-07T08:10:26.747Z,99074.92
2018-03-07T08:12:52.995Z,99074.05
2018-03-07T08:15:19.168Z,99077.13
2018-03-07T08:17:45.333Z,99069.30
2018-03-07T08:20:11.682Z,99061.05
2018-03-07T08:22:37.920Z,99061.95
2018-03-07T08:25:04.158Z,99058.89
2018-03-07T08:27:30.357Z,99059.73
2018-03-07T08:29:56.568Z,99061.88
2018-03-07T08:32:22.751Z,99059.69
2018-03-07T08:34:48.920Z,99060.95
2018-03-07T08:37:15.085Z,99058.73
2018-03-07T08:39:41.331Z,99059.08
2018-03-07T08:42:07.575Z,99064.16
2018-03-07T08:44:33.720Z,99057.85
2018-03-07T08:46:59.899Z,99058.83
2018-03-07T08:49:26.086Z,99056.52
2018-03-07T08:51:52.231Z,99058.19
2018-03-07T08:54:18.451Z,99051.26
2018-03-07T08:56:44.609Z,99063.20
2018-03-07T08:59:10.772Z,99059.84
2018-03-07T09:01:37.020Z,99060.41
2018-03-07T09:04:03.254Z,99065.09
2018-03-07T09:06:29.451Z,99067.80
2018-03-07T09:08:55.633Z,99069.34
2018-03-07T09:11:21.861Z,99069.59
2018-03-07T09:13:48.017Z,99074.83
2018-03-07T09:16:14.208Z,99075.05
2018-03-07T09:18:40.420Z,99071.85
2018-03-07T09:21:06.604Z,99066.27
2018-03-07T09:23:32.880Z,99071.74
2018-03-07T09:25:59.041Z,99080.92
2018-03-07T09:28:25.257Z,99079.58
2018-03-07T09:30:51.457Z,99076.59
2018-03-07T09:33:17.628Z,99078.06
2018-03-07T09:35:43.735Z,99076.86
2018-03-07T09:38:09.836Z,99082.13
2018-03-07T09:40:36.014Z,99072.67
2018-03-07T09:43:02.191Z,99085.22
2018-03-07T09:45:28.384Z,99085.64
2018-03-07T09:47:54.565Z,99090.82
2018-03-07T09:50:20.751Z,99090.98
2018-03-07T09:52:46.972Z,99094.95
2018-03-07T09:55:13.171Z,99101.08
2018-03-07T09:57:39.316Z,99102.63
2018-03-07T10:00:05.594Z,99100.09
2018-03-07T10:02:31.797Z,99102.27
2018-03-07T10:04:57.980Z,99108.06
2018-03-07T10:07:24.168Z,99118.95
2018-03-07T10:09:50.426Z,99118.00
2018-03-07T10:12:16.662Z,99115.00
2018-03-07T10:14:42.862Z,99122.87
2018-03-07T10:17:09.015Z,99120.77
2018-03-07T10:19:35.185Z,99128.20
2018-03-07T10:22:01.484Z,99129.70
2018-03-07T10:24:27.686Z,99130.44
2018-03-07T10:26:53.880Z,99126.82
2018-03-07T10:29:20.079Z,99131.96
2018-03-07T10:31:46.304Z,99136.84
2018-03-07T10:34:12.522Z,99140.88
2018-03-07T10:36:38.778Z,99148.75
2018-03-07T10:39:04.997Z,99147.81
2018-03-07T10:41:31.204Z,99147.41
2018-03-07T10:43:57.443Z,99152.77
2018-03-07T10:46:23.933Z,99160.70
2018-03-07T10:48:50.101Z,99156.66
2018-03-07T10:51:16.265Z,99163.15
2018-03-07T10:53:42.484Z,99162.45
2018-03-07T10:56:08.692Z,99158.97
2018-03-07T10:58:35.101Z,99163.78
2018-03-07T11:01:01.321Z,99160.95
2018-03-07T11:03:27.550Z,99169.25
2018-03-07T11:05:53.770Z,99162.75
2018-03-07T11:08:19.983Z,99165.04
2018-03-07T11:10:46.157Z,99167.75
2018-03-07T11:13:12.385Z,99164.66
2018-03-07T11:15:38.548Z,99171.65
2018-03-07T11:18:04.727Z,99178.16
2018-03-07T11:20:30.865Z,99180.14
2018-03-07T11:22:57.081Z,99179.09
2018-03-07T11:25:23.242Z,99180.72
2018-03-07T11:27:49.418Z,99179.48
2018-03-07T11:30:16.142Z,99177.87
2018-03-07T11:32:42.360Z,99181.40
2018-03-07T11:35:08.573Z,99186.64
2018-03-07T11:37:34.822Z,99192.56
2018-03-07T11:40:01.058Z,99193.19
2018-03-07T11:42:27.310Z,99199.30
2018-03-07T11:44:53.519Z,99188.32
2018-03-07T11:47:19.691Z,99193.30
2018-03-07T11:49:45.884Z,99193.90
2018-03-07T11:52:12.041Z,99193.15
2018-03-07T11:54:38.262Z,99189.68
2018-03-07T11:57:04.477Z,99197.06
2018-03-07T11:59:30.621Z,99199.72
2018-03-07T12:01:56.857Z,99196.53
2018-03-07T12:04:23.100Z,99196.82
2018-03-07T12:06:49.313Z,99200.20
2018-03-07T12:09:15.461Z,99202.55
2018-03-07T12:11:41.660Z,99202.12
2018-03-07T12:14:07.884Z,99202.34
2018-03-07T12:16:34.069Z,99200.06
2018-03-07T12:19:00.326Z,99203.53
2018-03-07T12:21:26.532Z,99206.12
2018-03-07T12:23:52.772Z,99197.80
2018-03-07T12:26:18.927Z,99208.03
2018-03-07T12:28:45.126Z,99208.66
2018-03-07T12:31:11.332Z,99210.89
2018-03-07T12:33:37.537Z,99203.39
2018-03-07T12:36:03.737Z,99203.84
2018-03-07T12:38:29.935Z,99206.48
2018-03-07T12:40:56.083Z,99206.95
2018-03-07T12:43:22.363Z,99206.95
2018-03-07T12:45:48.651Z,99207.32
2018-03-07T12:48:14.834Z,99202.56
2018-03-07T12:50:41.012Z,99209.58
2018-03-07T12:53:07.196Z,99205.39
2018-03-07T12:55:33.427Z,99206.81
2018-03-07T12:57:59.600Z,99212.91
2018-03-07T13:00:25.846Z,99208.04
2018-03-07T13:02:52.060Z,99205.38
2018-03-07T13:05:18.274Z,99208.36
2018-03-07T13:07:44.471Z,99211.80
2018-03-07T13:10:10.657Z,99215.64
2018-03-07T13:12:36.789Z,99208.19
2018-03-07T13:15:03.049Z,99213.84
2018-03-07T13:17:29.229Z,99213.95
2018-03-07T13:19:55.392Z,99219.56
2018-03-07T13:22:21.600Z,99213.05
2018-03-07T13:24:47.817Z,99214.80
2018-03-07T13:27:13.970Z,99217.05
2018-03-07T13:29:40.265Z,99222.34
2018-03-07T13:32:06.452Z,99223.19
2018-03-07T13:34:32.855Z,99223.27
2018-03-07T13:36:59.019Z,99227.17
2018-03-07T13:39:25.238Z,99226.69
2018-03-07T13:41:51.471Z,99228.86
2018-03-07T13:44:17.675Z,99232.43
2018-03-07T13:46:43.824Z,99229.39
2018-03-07T13:49:09.997Z,99233.72
2018-03-07T13:51:36.181Z,99239.87
2018-03-07T13:54:02.424Z,99235.12
2018-03-07T13:56:28.593Z,99238.62
2018-03-07T13:58:54.724Z,99239.91
2018-03-07T14:01:20.982Z,99239.03
2018-03-07T14:03:47.241Z,99245.23
2018-03-07T14:06:13.445Z,99247.84
2018-03-07T14:08:39.613Z,99250.05
2018-03-07T14:11:05.802Z,99254.45
2018-03-07T14:13:31.943Z,99262.84
2018-03-07T14:15:58.218Z,99258.64
2018-03-07T14:18:24.509Z,99264.77
2018-03-07T14:20:50.668Z,99266.14
2018-03-07T14:23:17.027Z,99275.30
2018-03-07T14:25:43.323Z,99274.44
2018-03-07T14:28:09.521Z,99283.13
2018-03-07T14:30:35.771Z,99282.32
2018-03-07T14:33:02.001Z,99282.73
2018-03-07T14:35:28.256Z,99288.83
2018-03-07T14:37:54.437Z,99297.63
2018-03-07T14:40:20.578Z,99306.34
2018-03-07T14:42:46.807Z,99304.94
2018-03-07T14:45:13.138Z,99308.67
2018-03-07T14:47:39.283Z,99303.55
2018-03-07T14:50:05.444Z,99310.15
2018-03-07T14:52:31.624Z,99315.91
2018-03-07T14:54:57.837Z,99321.13
2018-03-07T14:57:23.977Z,99318.09
2018-03-07T14:59:50.214Z,99325.09
2018-03-07T15:02:16.386Z,99326.83
2018-03-07T15:04:42.594Z,99332.11
2018-03-07T15:07:08.812Z,99328.77
2018-03-07T15:09:35.044Z,99339.78
2018-03-07T15:12:01.557Z,99346.52
2018-03-07T15:14:27.809Z,99356.26
2018-03-07T15:16:53.971Z,99349.41
2018-03-07T15:19:20.123Z,99357.77
2018-03-07T15:21:46.343Z,99360.00
2018-03-07T15:24:12.588Z,99364.77
2018-03-07T15:26:38.837Z,99368.70
2018-03-07T15:29:05.101Z,99370.42
2018-03-07T15:31:31.439Z,99376.94
2018-03-07T15:33:57.652Z,99381.73
2018-03-07T15:36:23.866Z,99383.03
2018-03-07T15:38:50.132Z,99391.27
2018-03-07T15:41:16.381Z,99397.42
2018-03-07T15:43:42.604Z,99399.19
2018-03-07T15:46:08.815Z,99405.73
2018-03-07T15:48:35.011Z,99416.20
2018-03-07T15:51:01.185Z,99416.19
2018-03-07T15:53:27.451Z,99412.72
2018-03-07T15:55:53.758Z,99422.27
2018-03-07T15:58:19.951Z,99424.03
2018-03-07T16:00:46.244Z,99431.47
2018-03-07T16:03:12.434Z,99432.80
2018-03-07T16:05:38.668Z,99434.11
2018-03-07T16:08:04.910Z,99430.59
2018-03-07T16:10:31.094Z,99438.91
2018-03-07T16:12:57.281Z,99450.70
2018-03-07T16:15:23.521Z,99451.99
2018-03-07T16:17:49.713Z,99449.38
2018-03-07T16:20:15.980Z,99454.13
2018-03-07T16:22:42.213Z,99457.61
2018-03-07T16:25:08.405Z,99465.45
2018-03-07T16:27:34.625Z,99464.56
2018-03-07T16:30:00.882Z,99465.44
2018-03-07T16:32:27.102Z,99468.88
2018-03-07T16:34:53.328Z,99474.91
2018-03-07T16:37:19.491Z,99479.69
2018-03-07T16:39:45.661Z,99480.55
2018-03-07T16:42:11.840Z,99488.80
2018-03-07T16:44:38.099Z,99486.16
2018-03-07T16:47:04.281Z,99487.89
2018-03-07T16:49:30.452Z,99487.86
2018-03-07T16:51:56.646Z,99491.83
2018-03-07T16:54:22.937Z,99498.78
2018-03-07T16:56:49.272Z,99502.27
2018-03-07T16:59:15.452Z,99507.05
2018-03-07T17:01:41.710Z,99503.11
2018-03-07T17:04:07.952Z,99508.77
2018-03-07T17:06:34.206Z,99510.91
2018-03-07T17:09:00.403Z,99509.20
2018-03-07T17:11:26.631Z,99510.16
2018-03-07T17:13:52.828Z,99522.44
2018-03-07T17:16:19.071Z,99522.09
2018-03-07T17:18:45.272Z,99525.18
2018-03-07T17:21:11.439Z,99529.17
2018-03-07T17:23:37.669Z,99520.92
2018-03-07T17:26:03.938Z,99536.19
2018-03-07T17:28:30.088Z,99540.99
2018-03-07T17:30:56.345Z,99537.11
2018-03-07T17:33:22.543Z,99545.38
2018-03-07T17:35:48.776Z,99550.58
2018-03-07T17:38:15.077Z,99549.73
2018-03-07T17:40:41.233Z,99557.55
2018-03-07T17:43:07.404Z,99568.85
2018-03-07T17:45:33.713Z,99572.34
2018-03-07T17:47:59.891Z,99579.76
2018-03-07T17:50:26.061Z,99585.00
2018-03-07T17:52:52.243Z,99592.38
2018-03-07T17:55:18.463Z,99592.41
2018-03-07T17:57:44.733Z,99595.00
2018-03-07T18:00:10.944Z,99591.53
2018-03-07T18:02:37.073Z,99602.41
2018-03-07T18:05:03.310Z,99607.61
2018-03-07T18:07:29.437Z,99609.31
2018-03-07T18:09:55.537Z,99620.59
2018-03-07T18:12:21.663Z,99621.88
2018-03-07T18:14:47.848Z,99623.59
2018-03-07T18:17:13.966Z,99624.88
2018-03-07T18:19:40.115Z,99632.70
2018-03-07T18:22:06.224Z,99642.67
2018-03-07T18:24:32.316Z,99640.92
2018-03-07T18:26:58.503Z,99637.83
2018-03-07T18:29:24.618Z,99634.34
2018-03-07T18:31:50.829Z,99639.12
2018-03-07T18:34:16.985Z,99639.12
2018-03-07T18:36:43.184Z,99644.73
2018-03-07T18:39:09.299Z,99649.53
2018-03-07T18:41:35.429Z,99652.97
2018-03-07T18:44:01.596Z,99657.77
2018-03-07T18:46:27.835Z,99651.23
2018-03-07T18:48:54.986Z,99658.17
2018-03-07T18:51:22.083Z,99659.95
2018-03-07T18:53:48.264Z,99666.06
2018-03-07T18:56:14.482Z,99658.68
2018-03-07T18:58:40.726Z,99664.80
2018-03-07T19:01:06.934Z,99671.34
2018-03-07T19:03:33.074Z,99666.13
2018-03-07T19:05:59.415Z,99666.13
2018-03-07T19:08:25.589Z,99670.95
2018-03-07T19:10:53.472Z,99676.59
2018-03-07T19:13:19.615Z,99674.50
2018-03-07T19:15:45.867Z,99682.33
2018-03-07T19:18:12.078Z,99684.94
2018-03-07T19:20:38.230Z,99689.28
2018-03-07T19:23:04.381Z,99686.23
2018-03-07T19:25:30.616Z,99693.66
2018-03-07T19:27:56.768Z,99688.87
2018-03-07T19:30:22.979Z,99689.78
2018-03-07T19:32:49.187Z,99693.72
2018-03-07T19:35:15.376Z,99694.63
2018-03-07T19:37:41.575Z,99695.96
2018-03-07T19:40:07.821Z,99699.89
2018-03-07T19:42:34.010Z,99701.65
2018-03-07T19:45:00.188Z,99703.42
2018-03-07T19:47:26.417Z,99699.09
2018-03-07T19:49:52.628Z,99711.70
2018-03-07T19:52:18.772Z,99710.38
2018-03-07T19:54:45.019Z,99715.17
2018-03-07T19:57:11.240Z,99713.46
2018-03-07T19:59:37.468Z,99715.19
2018-03-07T20:02:03.738Z,99714.31
2018-03-07T20:04:29.952Z,99717.37
2018-03-07T20:06:56.476Z,99719.09
2018-03-07T20:09:22.623Z,99720.86
2018-03-07T20:11:48.819Z,99724.77
2018-03-07T20:14:15.022Z,99721.27
2018-03-07T20:16:41.232Z,99720.84
2018-03-07T20:19:07.366Z,99721.29
2018-03-07T20:21:33.576Z,99717.38
2018-03-07T20:23:59.703Z,99727.36
2018-03-07T20:26:25.891Z,99729.95
2018-03-07T20:28:53.020Z,99725.61
2018-03-07T20:31:19.257Z,99730.83
2018-03-07T20:33:45.409Z,99742.11
2018-03-07T20:36:11.664Z,99742.11
2018-03-07T20:38:37.846Z,99742.13
2018-03-07T20:41:04.845Z,99748.64
2018-03-07T20:43:31.076Z,99745.59
2018-03-07T20:45:57.297Z,99752.06
2018-03-07T20:48:23.463Z,99761.19
2018-03-07T20:50:49.705Z,99762.93
2018-03-07T20:53:15.865Z,99762.04
2018-03-07T20:55:42.090Z,99771.16
2018-03-07T20:58:08.277Z,99770.30
2018-03-07T21:00:34.503Z,99778.97
2018-03-07T21:03:00.665Z,99775.06
2018-03-07T21:05:26.901Z,99774.61
2018-03-07T21:07:53.088Z,99780.68
2018-03-07T21:10:19.266Z,99784.17
2018-03-07T21:12:45.474Z,99783.28
2018-03-07T21:15:11.781Z,99790.23
2018-03-07T21:17:37.956Z,99790.23
2018-03-07T21:20:04.151Z,99793.24
2018-03-07T21:22:30.358Z,99805.41
2018-03-07T21:24:56.628Z,99807.11
2018-03-07T21:27:22.817Z,99804.51
2018-03-07T21:29:49.018Z,99808.45
2018-03-07T21:32:15.194Z,99811.02
2018-03-07T21:34:41.352Z,99814.06
2018-03-07T21:37:07.536Z,99818.83
2018-03-07T21:39:33.735Z,99814.06
2018-03-07T21:41:59.889Z,99816.66
2018-03-07T21:44:26.068Z,99821.01
2018-03-07T21:46:52.300Z,99820.97
2018-03-07T21:49:18.491Z,99816.20
2018-03-07T21:51:44.681Z,99828.32
2018-03-07T21:54:10.909Z,99827.47
2018-03-07T21:56:37.134Z,99823.97
2018-03-07T21:59:03.305Z,99825.26
2018-03-07T22:01:29.533Z,99827.41
2018-03-07T22:03:55.782Z,99832.60
2018-03-07T22:06:22.038Z,99828.70
2018-03-07T22:08:48.220Z,99823.89
2018-03-07T22:11:14.371Z,99836.90
2018-03-07T22:13:40.582Z,99829.94
2018-03-07T22:16:06.838Z,99832.53
2018-03-07T22:18:33.000Z,99839.02
2018-03-07T22:20:59.152Z,99836.86
2018-03-07T22:23:25.313Z,99842.91
2018-03-07T22:25:51.523Z,99847.22
2018-03-07T22:28:17.657Z,99847.67
2018-03-07T22:30:43.903Z,99852.02
2018-03-07T22:33:10.089Z,99847.22
2018-03-07T22:35:36.268Z,99847.22
2018-03-07T22:38:02.468Z,99848.52
2018-03-07T22:40:28.655Z,99850.70
2018-03-07T22:42:54.826Z,99861.06
2018-03-07T22:45:27.845Z,99853.25
2018-03-07T22:47:54.026Z,99865.39
2018-03-07T22:50:20.180Z,99861.88
2018-03-07T22:52:46.373Z,99866.22
2018-03-07T22:55:12.554Z,99863.61
2018-03-07T22:57:38.728Z,99864.48
2018-03-07T23:00:11.062Z,99872.28
2018-03-07T23:02:37.246Z,99869.27
2018-03-07T23:05:03.475Z,99861.05
2018-03-07T23:07:29.702Z,99869.70
2018-03-07T23:09:55.849Z,99871.45
2018-03-07T23:12:22.035Z,99869.30
2018-03-07T23:14:48.214Z,99863.64
2018-03-07T23:17:14.488Z,99866.23
2018-03-07T23:19:40.659Z,99864.03
2018-03-07T23:22:06.831Z,99868.37
2018-03-07T23:24:33.074Z,99873.09
2018-03-07T23:26:59.295Z,99868.34
2018-03-07T23:29:25.478Z,99875.69
2018-03-07T23:31:51.697Z,99880.43
2018-03-07T23:34:17.852Z,99878.67
2018-03-07T23:36:44.037Z,99872.61
2018-03-07T23:39:10.226Z,99866.95
2018-03-07T23:41:36.370Z,99874.31
2018-03-07T23:44:02.533Z,99879.95
2018-03-07T23:46:28.766Z,99881.70
2018-03-07T23:48:54.915Z,99875.61
2018-03-07T23:51:21.054Z,99873.45
2018-03-07T23:53:47.255Z,99880.34
2018-03-07T23:56:13.473Z,99891.17
2018-03-07T23:58:39.595Z,99888.56
